Time;durP1;ratioP1;P1;durP2;ratioP2;P2;SDS_P1;SDS_P2;PMS_P1;PMS_P2;Temp;Humidity;BMP_temperature;BMP_pressure;BME280_temperature;BME280_humidity;BME280_pressure;Samples;Min_cycle;Max_cycle;Signal;HPM_P1;HPM_P2
2023/11/19 00:02:19;;;;;;;;;;;128.90;2252.80;;;;;;4987169;28;19909;-76
2023/11/19 00:04:44;;;;;;;;;;;128.90;2252.80;;;;;;4987790;28;20251;-76
2023/11/19 00:07:12;;;;;;;;;;;128.90;2252.80;;;;;;4983738;28;19913;-76
2023/11/19 00:09:38;;;;;;;;;;;128.90;2252.80;;;;;;4980809;28;19961;-76
2023/11/19 00:12:04;;;;;;;;;;;128.90;2252.80;;;;;;4970669;28;19906;-75
2023/11/19 00:14:29;;;;;;;;;;;128.90;2252.80;;;;;;4988502;28;19913;-75
2023/11/19 00:16:55;;;;;;;;;;;128.80;2252.80;;;;;;4992407;28;19910;-75
2023/11/19 00:19:21;;;;;;;;;;;128.80;2252.80;;;;;;4986517;28;19996;-75
2023/11/19 00:21:46;;;;;;;;;;;128.70;2252.80;;;;;;4989385;28;19933;-75
2023/11/19 00:24:12;;;;;;;;;;;128.80;2252.80;;;;;;4990487;28;20342;-75
2023/11/19 00:26:38;;;;;;;;;;;128.80;2252.80;;;;;;4990322;28;19996;-75
2023/11/19 00:29:04;;;;;;;;;;;128.60;2252.80;;;;;;4994596;28;19925;-75
2023/11/19 00:31:29;;;;;;;;;;;128.80;2252.80;;;;;;4988215;28;19992;-76
2023/11/19 00:33:55;;;;;;;;;;;128.70;2252.80;;;;;;4990432;28;20001;-75
2023/11/19 00:36:23;;;;;;;;;;;128.80;2252.80;;;;;;4983520;28;19984;-75
2023/11/19 00:38:49;;;;;;;;;;;128.50;2252.80;;;;;;4976909;28;19910;-75
2023/11/19 00:41:16;;;;;;;;;;;128.50;2252.80;;;;;;4969628;28;19968;-75
2023/11/19 00:43:42;;;;;;;;;;;128.30;2252.80;;;;;;4983212;28;19917;-75
2023/11/19 00:46:08;;;;;;;;;;;128.20;2252.80;;;;;;4995758;28;19992;-75
2023/11/19 00:48:33;;;;;;;;;;;128.40;2252.80;;;;;;4988872;28;20410;-75
2023/11/19 00:50:59;;;;;;;;;;;128.40;2252.80;;;;;;4990602;28;19910;-75
2023/11/19 00:53:25;;;;;;;;;;;128.30;2252.80;;;;;;4977786;28;19964;-75
2023/11/19 00:55:50;;;;;;;;;;;128.40;2252.80;;;;;;4974846;28;20287;-75
2023/11/19 00:58:17;;;;;;;;;;;128.50;2252.80;;;;;;4989308;28;19945;-75
2023/11/19 01:00:43;;;;;;;;;;;128.60;2252.80;;;;;;4994523;28;19906;-75
2023/11/19 01:03:09;;;;;;;;;;;128.90;2252.80;;;;;;4975835;28;19913;-75
2023/11/19 01:05:34;;;;;;;;;;;128.60;2252.80;;;;;;4996002;28;20283;-75
2023/11/19 01:08:00;;;;;;;;;;;128.70;2252.80;;;;;;4978527;28;19949;-75
2023/11/19 01:10:26;;;;;;;;;;;128.70;2252.80;;;;;;4994813;28;19916;-75
2023/11/19 01:12:51;;;;;;;;;;;128.70;2252.80;;;;;;4994700;28;20016;-76
2023/11/19 01:15:18;;;;;;;;;;;128.60;2252.80;;;;;;4995929;28;19920;-76
2023/11/19 01:17:44;;;;;;;;;;;128.70;2252.80;;;;;;4995534;28;19933;-75
2023/11/19 01:20:12;;;;;;;;;;;128.40;2252.80;;;;;;4995294;28;19960;-75
2023/11/19 01:22:38;;;;;;;;;;;128.20;2252.80;;;;;;4977996;28;19918;-75
2023/11/19 01:25:05;;;;;;;;;;;128.10;2252.80;;;;;;4995192;28;19962;-76
2023/11/19 01:27:31;;;;;;;;;;;128.20;2252.80;;;;;;4995385;28;20429;-75
2023/11/19 01:29:56;;;;;;;;;;;128.20;2252.80;;;;;;4995569;28;19910;-75
2023/11/19 01:32:23;;;;;;;;;;;128.20;2252.80;;;;;;4978018;28;19913;-77
2023/11/19 01:34:49;;;;;;;;;;;128.20;2252.80;;;;;;4995185;28;19916;-76
2023/11/19 01:37:15;;;;;;;;;;;128.30;2252.80;;;;;;4977514;28;20355;-75
2023/11/19 01:39:43;;;;;;;;;;;128.30;2252.80;;;;;;4995083;28;19905;-76
2023/11/19 01:42:09;;;;;;;;;;;128.20;2252.80;;;;;;4977699;28;19940;-75
2023/11/19 01:44:34;;;;;;;;;;;128.20;2252.80;;;;;;4995481;28;19910;-76
2023/11/19 01:47:00;;;;;;;;;;;128.10;2252.80;;;;;;4995288;28;19912;-75
2023/11/19 01:49:26;;;;;;;;;;;128.10;2252.80;;;;;;4994891;28;19998;-75
2023/11/19 01:51:52;;;;;;;;;;;103.30;2227.20;;;;;;4995048;28;20003;-75
2023/11/19 01:54:17;;;;;;;;;;;128.00;2252.80;;;;;;4977379;28;19953;-75
2023/11/19 01:56:44;;;;;;;;;;;128.10;2252.80;;;;;;4994884;28;19914;-76
2023/11/19 01:59:11;;;;;;;;;;;128.10;2252.80;;;;;;4994802;28;19912;-75
2023/11/19 02:01:39;;;;;;;;;;;128.20;2252.80;;;;;;4995070;28;19909;-76
2023/11/19 02:04:05;;;;;;;;;;;128.20;2252.80;;;;;;4993520;28;20359;-75
2023/11/19 02:06:32;;;;;;;;;;;128.20;2252.80;;;;;;4977573;28;20377;-75
2023/11/19 02:08:58;;;;;;;;;;;128.20;2252.80;;;;;;4994530;28;19912;-75
2023/11/19 02:11:29;;;;;;;;;;;128.30;2252.80;;;;;;4994794;28;19906;-75
2023/11/19 02:13:57;;;;;;;;;;;128.30;2252.80;;;;;;4965373;28;20343;-75
2023/11/19 02:16:23;;;;;;;;;;;128.20;2252.80;;;;;;4994727;28;20363;-75
2023/11/19 02:18:48;;;;;;;;;;;128.20;2252.80;;;;;;4977198;28;19912;-75
2023/11/19 02:21:15;;;;;;;;;;;128.40;2252.80;;;;;;4994350;28;20291;-77
2023/11/19 02:23:40;;;;;;;;;;;128.30;2252.80;;;;;;4994395;28;19953;-75
2023/11/19 02:26:21;;;;;;;;;;;128.20;2252.80;;;;;;4994178;28;20003;-75
2023/11/19 02:28:46;;;;;;;;;;;128.20;2252.80;;;;;;4994877;28;19916;-75
2023/11/19 02:31:12;;;;;;;;;;;128.40;2252.80;;;;;;4994438;28;19909;-75
2023/11/19 02:33:38;;;;;;;;;;;128.40;2252.80;;;;;;4994588;28;20048;-76
2023/11/19 02:36:04;;;;;;;;;;;128.40;2252.80;;;;;;4994369;28;19913;-76
2023/11/19 02:38:30;;;;;;;;;;;128.50;2252.80;;;;;;4994488;28;19906;-75
2023/11/19 02:40:56;;;;;;;;;;;128.50;2252.80;;;;;;4994262;28;20029;-75
2023/11/19 02:43:22;;;;;;;;;;;128.50;2252.80;;;;;;4977112;28;19913;-75
2023/11/19 02:45:48;;;;;;;;;;;128.40;2252.80;;;;;;4976650;28;19906;-75
2023/11/19 02:48:15;;;;;;;;;;;128.20;2252.80;;;;;;4976934;28;19913;-76
2023/11/19 02:50:41;;;;;;;;;;;128.00;2252.80;;;;;;4993829;28;20003;-76
2023/11/19 02:53:07;;;;;;;;;;;103.20;2227.20;;;;;;4994202;28;19920;-75
2023/11/19 02:55:37;;;;;;;;;;;103.10;2227.20;;;;;;4992347;28;19913;-75
2023/11/19 02:58:09;;;;;;;;;;;103.10;2227.20;;;;;;4976765;28;20267;-75
2023/11/19 03:00:47;;;;;;;;;;;103.00;2227.20;;;;;;4994337;28;19941;-75
2023/11/19 03:03:22;;;;;;;;;;;103.00;2227.20;;;;;;4994114;28;20268;-76
2023/11/19 03:05:47;;;;;;;;;;;103.00;2227.20;;;;;;4994082;28;20327;-75
2023/11/19 03:08:14;;;;;;;;;;;103.00;2227.20;;;;;;4993967;28;19960;-76
2023/11/19 03:10:39;;;;;;;;;;;102.90;2227.20;;;;;;4994204;28;20263;-77
2023/11/19 03:13:05;;;;;;;;;;;102.90;2227.20;;;;;;4976551;28;19905;-76
2023/11/19 03:15:31;;;;;;;;;;;102.90;2227.20;;;;;;4963615;28;20239;-75
2023/11/19 03:17:56;;;;;;;;;;;102.90;2227.20;;;;;;4976777;28;19910;-75
2023/11/19 03:20:23;;;;;;;;;;;103.00;2227.20;;;;;;4976216;28;19914;-75
2023/11/19 03:22:50;;;;;;;;;;;102.90;2227.20;;;;;;4993793;28;20015;-76
2023/11/19 03:25:16;;;;;;;;;;;102.80;2227.20;;;;;;4980931;28;19906;-75
2023/11/19 03:27:41;;;;;;;;;;;102.70;2227.20;;;;;;4993756;28;19912;-75
2023/11/19 03:30:09;;;;;;;;;;;102.80;2227.20;;;;;;4981299;28;19906;-75
2023/11/19 03:32:35;;;;;;;;;;;102.90;2227.20;;;;;;4976392;28;19906;-75
2023/11/19 03:35:07;;;;;;;;;;;102.90;2227.20;;;;;;4993573;28;19920;-75
2023/11/19 03:37:33;;;;;;;;;;;103.00;2227.20;;;;;;4993352;28;20366;-75
2023/11/19 03:39:59;;;;;;;;;;;103.10;2227.20;;;;;;4993609;28;20008;-76
2023/11/19 03:42:27;;;;;;;;;;;103.10;2227.20;;;;;;4993716;28;20442;-75
2023/11/19 03:44:53;;;;;;;;;;;103.00;2227.20;;;;;;4976327;28;19906;-75
2023/11/19 03:47:19;;;;;;;;;;;103.00;2227.20;;;;;;4975795;28;19909;-75
2023/11/19 03:49:48;;;;;;;;;;;102.90;2227.20;;;;;;4993509;28;20282;-75
2023/11/19 03:52:14;;;;;;;;;;;102.80;2227.20;;;;;;4993344;28;20375;-76
2023/11/19 03:54:39;;;;;;;;;;;102.80;2227.20;;;;;;4975888;28;19956;-75
2023/11/19 03:57:05;;;;;;;;;;;102.80;2227.20;;;;;;4993607;28;20291;-76
2023/11/19 03:59:31;;;;;;;;;;;102.80;2227.20;;;;;;4995542;28;19906;-75
2023/11/19 04:01:56;;;;;;;;;;;102.60;2227.20;;;;;;4996960;28;19917;-75
2023/11/19 04:04:22;;;;;;;;;;;102.50;2227.20;;;;;;4997374;28;19913;-75
2023/11/19 04:06:48;;;;;;;;;;;102.50;2227.20;;;;;;4996966;28;19905;-76
2023/11/19 04:09:13;;;;;;;;;;;102.60;2227.20;;;;;;4996929;28;20311;-76
2023/11/19 04:11:39;;;;;;;;;;;102.70;2227.20;;;;;;4996648;28;19944;-75
2023/11/19 04:14:05;;;;;;;;;;;102.80;2227.20;;;;;;4996853;28;20356;-76
2023/11/19 04:16:31;;;;;;;;;;;102.70;2227.20;;;;;;4996461;28;19929;-75
2023/11/19 04:18:56;;;;;;;;;;;102.60;2227.20;;;;;;4996943;28;19916;-75
2023/11/19 04:21:23;;;;;;;;;;;102.60;2227.20;;;;;;4974559;28;19918;-75
2023/11/19 04:23:49;;;;;;;;;;;102.60;2227.20;;;;;;4977372;28;19917;-76
2023/11/19 04:26:15;;;;;;;;;;;102.70;2227.20;;;;;;4976505;28;19906;-75
2023/11/19 04:28:41;;;;;;;;;;;102.70;2227.20;;;;;;4968858;28;20344;-75
2023/11/19 04:31:06;;;;;;;;;;;102.60;2227.20;;;;;;4958645;28;19910;-75
2023/11/19 04:33:32;;;;;;;;;;;102.60;2227.20;;;;;;4976919;28;19937;-75
2023/11/19 04:35:57;;;;;;;;;;;102.70;2227.20;;;;;;4976873;28;19914;-75
2023/11/19 04:38:23;;;;;;;;;;;102.80;2227.20;;;;;;4975501;28;19912;-75
2023/11/19 04:40:49;;;;;;;;;;;102.60;2227.20;;;;;;4976873;28;19910;-75
2023/11/19 04:43:15;;;;;;;;;;;102.60;2227.20;;;;;;4975807;28;19910;-75
2023/11/19 04:45:41;;;;;;;;;;;102.70;2227.20;;;;;;4976383;28;19941;-75
2023/11/19 04:48:06;;;;;;;;;;;102.70;2227.20;;;;;;4977041;28;20308;-75
2023/11/19 04:50:32;;;;;;;;;;;102.80;2227.20;;;;;;4974929;28;19917;-75
2023/11/19 04:52:57;;;;;;;;;;;102.80;2227.20;;;;;;4975422;28;20008;-76
2023/11/19 04:55:23;;;;;;;;;;;102.80;2227.20;;;;;;4962065;28;19914;-76
2023/11/19 04:57:48;;;;;;;;;;;102.70;2227.20;;;;;;4976730;28;19956;-75
2023/11/19 05:00:14;;;;;;;;;;;102.60;2227.20;;;;;;4976347;28;19969;-75
2023/11/19 05:02:40;;;;;;;;;;;102.70;2227.20;;;;;;4976491;28;20005;-75
2023/11/19 05:05:06;;;;;;;;;;;102.70;2227.20;;;;;;4963588;28;19907;-76
2023/11/19 05:07:31;;;;;;;;;;;102.60;2227.20;;;;;;4976461;28;19913;-75
2023/11/19 05:09:58;;;;;;;;;;;102.70;2227.20;;;;;;4961808;28;19906;-75
2023/11/19 05:12:24;;;;;;;;;;;102.70;2227.20;;;;;;4964015;28;20260;-75
2023/11/19 05:14:50;;;;;;;;;;;102.70;2227.20;;;;;;4975980;28;19925;-75
2023/11/19 05:17:17;;;;;;;;;;;102.70;2227.20;;;;;;4969903;28;20054;-75
2023/11/19 05:19:43;;;;;;;;;;;102.70;2227.20;;;;;;4975631;28;19945;-75
2023/11/19 05:22:09;;;;;;;;;;;102.70;2227.20;;;;;;4978419;28;19953;-75
2023/11/19 05:24:35;;;;;;;;;;;102.90;2227.20;;;;;;4995680;28;19906;-75
2023/11/19 05:27:01;;;;;;;;;;;102.80;2227.20;;;;;;4995551;28;20520;-75
2023/11/19 05:29:27;;;;;;;;;;;102.90;2227.20;;;;;;4995451;28;20012;-75
2023/11/19 05:31:55;;;;;;;;;;;102.80;2227.20;;;;;;5002395;28;19909;-75
2023/11/19 05:34:21;;;;;;;;;;;102.80;2227.20;;;;;;5001345;28;19909;-75
2023/11/19 05:36:46;;;;;;;;;;;102.80;2227.20;;;;;;4995332;28;20020;-75
2023/11/19 05:39:12;;;;;;;;;;;102.80;2227.20;;;;;;4977627;28;19917;-75
2023/11/19 05:41:37;;;;;;;;;;;102.90;2227.20;;;;;;4995213;28;19952;-75
2023/11/19 05:44:03;;;;;;;;;;;102.90;2227.20;;;;;;4994960;28;19913;-75
2023/11/19 05:46:29;;;;;;;;;;;102.90;2227.20;;;;;;4995187;28;19905;-75
2023/11/19 05:48:54;;;;;;;;;;;102.90;2227.20;;;;;;4994834;28;19906;-75
2023/11/19 05:51:20;;;;;;;;;;;102.90;2227.20;;;;;;4977474;28;19996;-75
2023/11/19 05:53:45;;;;;;;;;;;103.00;2227.20;;;;;;4995086;28;19916;-76
2023/11/19 05:56:11;;;;;;;;;;;102.90;2227.20;;;;;;4994400;28;19914;-74
2023/11/19 05:58:37;;;;;;;;;;;102.90;2227.20;;;;;;4994961;28;20274;-74
2023/11/19 06:01:03;;;;;;;;;;;128.10;2252.80;;;;;;4994637;28;19906;-75
2023/11/19 06:03:29;;;;;;;;;;;103.00;2227.20;;;;;;4994841;28;19906;-74
2023/11/19 06:05:54;;;;;;;;;;;102.90;2227.20;;;;;;4992423;28;19912;-75
2023/11/19 06:08:20;;;;;;;;;;;103.00;2227.20;;;;;;4987351;28;19912;-74
2023/11/19 06:10:46;;;;;;;;;;;103.10;2227.20;;;;;;4975216;28;19906;-74
2023/11/19 06:13:15;;;;;;;;;;;103.10;2227.20;;;;;;4983154;28;20324;-74
2023/11/19 06:15:44;;;;;;;;;;;103.30;2227.20;;;;;;4984175;28;19954;-73
2023/11/19 06:18:11;;;;;;;;;;;128.00;2252.80;;;;;;4974772;28;19906;-76
2023/11/19 06:20:37;;;;;;;;;;;128.00;2252.80;;;;;;4967740;28;19918;-75
2023/11/19 06:23:02;;;;;;;;;;;128.00;2252.80;;;;;;4985745;28;19914;-76
2023/11/19 06:25:28;;;;;;;;;;;128.00;2252.80;;;;;;4964844;28;19906;-76
2023/11/19 06:27:54;;;;;;;;;;;128.10;2252.80;;;;;;4984070;28;19906;-75
2023/11/19 06:30:20;;;;;;;;;;;103.30;2227.20;;;;;;4992970;28;19913;-77
2023/11/19 06:32:46;;;;;;;;;;;128.20;2252.80;;;;;;4974404;28;20418;-77
2023/11/19 06:35:13;;;;;;;;;;;128.20;2252.80;;;;;;4992291;28;20360;-76
2023/11/19 06:37:39;;;;;;;;;;;128.20;2252.80;;;;;;4988270;28;20263;-77
2023/11/19 06:40:06;;;;;;;;;;;128.40;2252.80;;;;;;4989151;28;20280;-78
2023/11/19 06:42:31;;;;;;;;;;;128.60;2252.80;;;;;;4986520;28;19957;-79
2023/11/19 06:44:57;;;;;;;;;;;128.50;2252.80;;;;;;4987244;28;20303;-80
2023/11/19 06:47:27;;;;;;;;;;;128.70;2252.80;;;;;;4990760;28;19906;-76
2023/11/19 06:49:52;;;;;;;;;;;128.70;2252.80;;;;;;4964939;28;19917;-76
2023/11/19 06:52:18;;;;;;;;;;;128.50;2252.80;;;;;;4988449;28;19909;-76
2023/11/19 06:54:45;;;;;;;;;;;128.60;2252.80;;;;;;4990192;28;19905;-78
2023/11/19 06:57:11;;;;;;;;;;;128.70;2252.80;;;;;;4975573;28;19916;-78
2023/11/19 06:59:37;;;;;;;;;;;128.70;2252.80;;;;;;4992601;28;19909;-76
2023/11/19 07:02:02;;;;;;;;;;;128.80;2252.80;;;;;;4980746;28;20280;-77
2023/11/19 07:04:28;;;;;;;;;;;128.80;2252.80;;;;;;4991971;28;19910;-78
2023/11/19 07:06:53;;;;;;;;;;;128.80;2252.80;;;;;;4990601;28;20446;-77
2023/11/19 07:09:19;;;;;;;;;;;128.60;2252.80;;;;;;4986815;28;19906;-76
2023/11/19 07:11:45;;;;;;;;;;;128.70;2252.80;;;;;;4984586;28;19917;-78
2023/11/19 07:14:11;;;;;;;;;;;128.70;2252.80;;;;;;4974088;28;19910;-75
2023/11/19 07:16:39;;;;;;;;;;;128.90;2252.80;;;;;;4971503;28;20264;-77
2023/11/19 07:19:05;;;;;;;;;;;128.90;2252.80;;;;;;4988670;28;19905;-82
2023/11/19 07:21:32;;;;;;;;;;;128.70;2252.80;;;;;;4984151;28;19925;-77
2023/11/19 07:23:58;;;;;;;;;;;128.90;2252.80;;;;;;4971212;28;20359;-76
2023/11/19 07:26:23;;;;;;;;;;;153.70;2252.80;;;;;;4983893;28;19914;-78
2023/11/19 07:28:49;;;;;;;;;;;153.90;2252.80;;;;;;4961433;28;19913;-78
2023/11/19 07:31:15;;;;;;;;;;;154.00;2252.80;;;;;;4962578;28;19909;-77
2023/11/19 07:33:42;;;;;;;;;;;154.20;2252.80;;;;;;4991959;28;19906;-78
2023/11/19 07:36:08;;;;;;;;;;;154.40;2252.80;;;;;;4979496;28;19914;-78
2023/11/19 07:38:34;;;;;;;;;;;154.30;2252.80;;;;;;4991555;28;19909;-77
2023/11/19 07:41:00;;;;;;;;;;;154.20;2252.80;;;;;;4995635;28;19913;-78
2023/11/19 07:43:25;;;;;;;;;;;154.40;2252.80;;;;;;4985577;28;19911;-79
2023/11/19 07:45:51;;;;;;;;;;;154.20;2252.80;;;;;;4988829;28;19917;-78
2023/11/19 07:48:18;;;;;;;;;;;154.10;2252.80;;;;;;4992721;28;19910;-78
2023/11/19 07:50:43;;;;;;;;;;;154.30;2252.80;;;;;;4996232;28;20000;-78
2023/11/19 07:53:09;;;;;;;;;;;154.10;2252.80;;;;;;4993709;28;19945;-78
2023/11/19 07:55:34;;;;;;;;;;;154.10;2252.80;;;;;;4985596;28;19921;-78
2023/11/19 07:58:01;;;;;;;;;;;154.20;2252.80;;;;;;4976402;28;20385;-81
2023/11/19 08:00:26;;;;;;;;;;;154.40;2252.80;;;;;;4995747;28;20388;-81
2023/11/19 08:02:52;;;;;;;;;;;154.40;2252.80;;;;;;4995064;28;19906;-78
2023/11/19 08:05:17;;;;;;;;;;;154.50;2252.80;;;;;;4995012;28;19906;-78
2023/11/19 08:07:43;;;;;;;;;;;154.50;2252.80;;;;;;4991599;28;19914;-78
2023/11/19 08:10:11;;;;;;;;;;;154.50;2252.80;;;;;;4985172;28;20336;-78
2023/11/19 08:12:37;;;;;;;;;;;154.50;2252.80;;;;;;4972278;28;19968;-77
2023/11/19 08:15:04;;;;;;;;;;;154.50;2252.80;;;;;;4971817;28;20371;-77
2023/11/19 08:17:30;;;;;;;;;;;179.20;2252.80;;;;;;4962945;28;19910;-78
2023/11/19 08:19:55;;;;;;;;;;;179.20;2252.80;;;;;;4968865;28;19910;-81
2023/11/19 08:22:22;;;;;;;;;;;179.30;2252.80;;;;;;4976077;28;20435;-78
2023/11/19 08:24:48;;;;;;;;;;;179.30;2252.80;;;;;;4968210;28;19952;-78
2023/11/19 08:27:14;;;;;;;;;;;154.20;2252.80;;;;;;4971288;28;19913;-78
2023/11/19 08:29:40;;;;;;;;;;;179.40;2252.80;;;;;;4980646;28;19906;-77
2023/11/19 08:32:06;;;;;;;;;;;179.40;2252.80;;;;;;4993686;28;19910;-77
2023/11/19 08:34:31;;;;;;;;;;;179.30;2252.80;;;;;;4966558;28;19910;-78
2023/11/19 08:36:57;;;;;;;;;;;179.30;2252.80;;;;;;4988779;28;19929;-78
2023/11/19 08:39:23;;;;;;;;;;;154.50;2252.80;;;;;;4990274;28;20388;-78
2023/11/19 08:41:48;;;;;;;;;;;179.20;2252.80;;;;;;4978551;28;19913;-78
2023/11/19 08:44:14;;;;;;;;;;;179.20;2252.80;;;;;;4967624;28;19906;-79
2023/11/19 08:46:46;;;;;;;;;;;179.60;2252.80;;;;;;4981539;28;19906;-78
2023/11/19 08:49:11;;;;;;;;;;;179.80;2252.80;;;;;;4968154;28;19929;-77
2023/11/19 08:51:37;;;;;;;;;;;179.80;2252.80;;;;;;4974117;28;20364;-78
2023/11/19 08:54:03;;;;;;;;;;;180.00;2252.80;;;;;;4979733;28;19910;-80
2023/11/19 08:56:32;;;;;;;;;;;180.10;2252.80;;;;;;4972939;28;19922;-78
2023/11/19 08:58:58;;;;;;;;;;;180.10;2252.80;;;;;;4978567;28;19928;-77
2023/11/19 09:01:24;;;;;;;;;;;180.10;2252.80;;;;;;4989889;28;20356;-78
2023/11/19 09:03:50;;;;;;;;;;;180.10;2252.80;;;;;;4978857;28;19960;-78
2023/11/19 09:06:15;;;;;;;;;;;180.10;2252.80;;;;;;4990246;28;20307;-79
2023/11/19 09:08:42;;;;;;;;;;;204.90;2252.80;;;;;;4994711;28;19913;-77
2023/11/19 09:11:08;;;;;;;;;;;205.10;2252.80;;;;;;4974418;28;19906;-78
2023/11/19 09:13:34;;;;;;;;;;;205.40;2252.80;;;;;;4989530;28;20012;-77
2023/11/19 09:16:03;;;;;;;;;;;205.30;2252.80;;;;;;4990870;28;20017;-78
2023/11/19 09:18:32;;;;;;;;;;;205.70;2252.80;;;;;;4994749;28;20389;-78
2023/11/19 09:20:57;;;;;;;;;;;205.60;2252.80;;;;;;4971603;28;19922;-79
2023/11/19 09:23:25;;;;;;;;;;;230.40;2252.80;;;;;;4962716;28;20036;-75
2023/11/19 09:25:51;;;;;;;;;;;230.60;2252.80;;;;;;4969970;28;19951;-83
2023/11/19 09:28:16;;;;;;;;;;;230.70;2252.80;;;;;;4969284;28;20004;-79
2023/11/19 09:30:42;;;;;;;;;;;231.00;2252.80;;;;;;4975772;28;19906;-81
2023/11/19 09:33:07;;;;;;;;;;;231.20;2252.80;;;;;;4995260;28;19906;-79
2023/11/19 09:35:33;;;;;;;;;;;231.30;2252.80;;;;;;4993859;28;19920;-80
2023/11/19 09:37:59;;;;;;;;;;;256.20;2252.80;;;;;;4988977;28;20378;-79
2023/11/19 09:40:24;;;;;;;;;;;256.60;2252.80;;;;;;4991421;28;19964;-81
2023/11/19 09:42:50;;;;;;;;;;;256.90;2252.80;;;;;;4972612;28;19910;-79
2023/11/19 09:45:17;;;;;;;;;;;282.00;2278.40;;;;;;4973594;28;19911;-81
2023/11/19 09:47:47;;;;;;;;;;;282.20;2278.40;;;;;;4990111;28;19913;-83
2023/11/19 09:50:18;;;;;;;;;;;282.20;2278.40;;;;;;4968911;28;20311;-77
2023/11/19 09:52:44;;;;;;;;;;;282.30;2278.40;;;;;;4967740;28;19992;-75
2023/11/19 09:55:09;;;;;;;;;;;282.10;2252.80;;;;;;4992715;28;19909;-75
2023/11/19 09:57:36;;;;;;;;;;;282.30;2252.80;;;;;;4967395;28;19952;-75
2023/11/19 10:00:04;;;;;;;;;;;307.40;2201.60;;;;;;4989746;28;19918;-77
2023/11/19 10:02:31;;;;;;;;;;;307.60;2124.80;;;;;;4989159;28;19913;-76
2023/11/19 10:04:58;;;;;;;;;;;307.40;2150.40;;;;;;4990140;28;19909;-75
2023/11/19 10:07:24;;;;;;;;;;;282.50;2124.80;;;;;;4967602;28;19990;-77
2023/11/19 10:09:50;;;;;;;;;;;282.20;2150.40;;;;;;4986893;28;20376;-76
2023/11/19 10:12:16;;;;;;;;;;;281.80;2201.60;;;;;;4988603;28;19992;-77
2023/11/19 10:14:42;;;;;;;;;;;281.80;2252.80;;;;;;4992377;28;19951;-77
2023/11/19 10:17:09;;;;;;;;;;;282.10;2176.00;;;;;;4988493;28;19917;-77
2023/11/19 10:19:35;;;;;;;;;;;281.60;2252.80;;;;;;4984186;28;19905;-76
2023/11/19 10:22:04;;;;;;;;;;;256.90;2252.80;;;;;;4990577;28;20012;-77
2023/11/19 10:24:37;;;;;;;;;;;282.00;2227.20;;;;;;4987577;28;19913;-76
2023/11/19 10:27:08;;;;;;;;;;;282.50;2124.80;;;;;;4989893;28;19906;-78
2023/11/19 10:29:36;;;;;;;;;;;282.40;2099.20;;;;;;4983699;28;19992;-78
2023/11/19 10:32:02;;;;;;;;;;;282.50;2099.20;;;;;;4974864;28;19913;-76
2023/11/19 10:34:27;;;;;;;;;;;307.20;2099.20;;;;;;4994000;28;19910;-85
2023/11/19 10:36:53;;;;;;;;;;;;;;;;;;4976770;28;19920;-76
2023/11/19 10:39:20;;;;;;;;;;;;;;;;;;4969154;28;19905;-77
2023/11/19 10:41:46;;;;;;;;;;;;;;;;;;4983105;28;19907;-84
2023/11/19 10:44:12;;;;;;;;;;;282.20;2073.60;;;;;;4992986;28;19906;-84
2023/11/19 10:46:38;;;;;;;;;;;282.20;2124.80;;;;;;4990014;28;20382;-78
2023/11/19 10:49:04;;;;;;;;;;;282.00;2176.00;;;;;;4992157;28;20368;-80
2023/11/19 10:51:31;;;;;;;;;;;281.80;2201.60;;;;;;4966253;28;19917;-77
2023/11/19 10:53:59;;;;;;;;;;;281.70;2176.00;;;;;;4991581;28;19914;-76
2023/11/19 10:56:30;;;;;;;;;;;256.90;2150.40;;;;;;4988705;28;20049;-78
2023/11/19 10:58:59;;;;;;;;;;;256.80;2150.40;;;;;;4976507;28;19906;-78
2023/11/19 11:01:26;;;;;;;;;;;256.80;2201.60;;;;;;4972923;28;20299;-78
2023/11/19 11:03:54;;;;;;;;;;;256.60;2201.60;;;;;;4994199;28;20040;-78
2023/11/19 11:06:20;;;;;;;;;;;256.80;2176.00;;;;;;4975235;28;19906;-79
2023/11/19 11:08:46;;;;;;;;;;;256.70;2227.20;;;;;;4992769;28;19913;-80
2023/11/19 11:11:15;;;;;;;;;;;256.60;2252.80;;;;;;4989920;28;19906;-80
2023/11/19 11:13:42;;;;;;;;;;;256.80;2252.80;;;;;;4972995;28;19906;-75
2023/11/19 11:16:08;;;;;;;;;;;256.90;2252.80;;;;;;4970393;28;20287;-76
2023/11/19 11:18:33;;;;;;;;;;;281.70;2278.40;;;;;;4989563;28;19906;-80
2023/11/19 11:21:08;;;;;;;;;;;282.00;2278.40;;;;;;4970385;28;20288;-75
2023/11/19 11:23:54;;;;;;;;;;;281.70;2278.40;;;;;;4983932;28;19937;-77
2023/11/19 11:26:19;;;;;;;;;;;256.90;2252.80;;;;;;4965773;28;19917;-76
2023/11/19 11:28:45;;;;;;;;;;;256.70;2252.80;;;;;;4993007;28;19905;-76
2023/11/19 11:31:11;;;;;;;;;;;256.70;2252.80;;;;;;4976848;28;19906;-74
2023/11/19 11:33:56;;;;;;;;;;;256.80;2252.80;;;;;;4995464;28;19909;-75
2023/11/19 11:36:22;;;;;;;;;;;256.60;2252.80;;;;;;4979701;28;19913;-78
2023/11/19 11:38:49;;;;;;;;;;;256.90;2252.80;;;;;;4987788;28;20351;-78
2023/11/19 11:41:19;;;;;;;;;;;281.60;2278.40;;;;;;4994575;28;19909;-77
2023/11/19 11:43:46;;;;;;;;;;;256.70;2252.80;;;;;;4979337;28;19906;-78
2023/11/19 11:46:30;;;;;;;;;;;256.80;2252.80;;;;;;4978404;28;19906;-79
2023/11/19 11:48:57;;;;;;;;;;;256.90;2252.80;;;;;;4991975;28;19906;-78
2023/11/19 11:51:41;;;;;;;;;;;281.70;2278.40;;;;;;4977001;28;19917;-78
2023/11/19 11:54:08;;;;;;;;;;;281.70;2278.40;;;;;;4993659;28;19918;-77
2023/11/19 11:56:34;;;;;;;;;;;256.70;2252.80;;;;;;4983438;28;19978;-78
2023/11/19 11:58:59;;;;;;;;;;;256.80;2252.80;;;;;;4966992;28;19912;-78
2023/11/19 12:01:28;;;;;;;;;;;256.50;2252.80;;;;;;4991476;28;19996;-77
2023/11/19 12:03:55;;;;;;;;;;;256.80;2252.80;;;;;;4980705;28;19909;-79
2023/11/19 12:06:21;;;;;;;;;;;256.90;2252.80;;;;;;4981327;28;19960;-80
2023/11/19 12:08:47;;;;;;;;;;;256.90;2252.80;;;;;;4991004;28;19916;-74
2023/11/19 12:11:13;;;;;;;;;;;256.80;2252.80;;;;;;4994718;28;19980;-76
2023/11/19 12:13:48;;;;;;;;;;;256.90;2252.80;;;;;;4980501;28;19913;-75
2023/11/19 12:16:14;;;;;;;;;;;281.70;2278.40;;;;;;4993333;28;19917;-76
2023/11/19 12:18:40;;;;;;;;;;;281.70;2278.40;;;;;;4972942;28;19960;-77
2023/11/19 12:21:07;;;;;;;;;;;256.90;2252.80;;;;;;4968961;28;19961;-77
2023/11/19 12:23:33;;;;;;;;;;;256.90;2252.80;;;;;;4961689;28;20280;-77
2023/11/19 12:25:58;;;;;;;;;;;256.90;2252.80;;;;;;4978353;28;19914;-77
2023/11/19 12:28:26;;;;;;;;;;;256.80;2252.80;;;;;;4971080;28;19905;-77
2023/11/19 12:30:53;;;;;;;;;;;256.90;2252.80;;;;;;4974311;28;19906;-77
2023/11/19 12:33:19;;;;;;;;;;;281.60;2278.40;;;;;;4980116;28;19906;-77
2023/11/19 12:35:47;;;;;;;;;;;281.60;2278.40;;;;;;4975635;28;19914;-76
2023/11/19 12:38:20;;;;;;;;;;;256.90;2252.80;;;;;;4984239;28;19910;-76
2023/11/19 12:40:46;;;;;;;;;;;281.60;2278.40;;;;;;4993534;28;20359;-76
2023/11/19 12:43:21;;;;;;;;;;;281.60;2278.40;;;;;;4986507;28;20000;-76
2023/11/19 12:45:46;;;;;;;;;;;256.80;2252.80;;;;;;4987445;28;20406;-76
2023/11/19 12:48:12;;;;;;;;;;;256.90;2252.80;;;;;;4969587;28;19906;-76
2023/11/19 12:51:10;;;;;;;;;;;256.90;2252.80;;;;;;4961328;28;20387;-75
2023/11/19 12:53:48;;;;;;;;;;;256.70;2252.80;;;;;;4910666;29;19965;-75
2023/11/19 12:56:15;;;;;;;;;;;256.90;2252.80;;;;;;4928649;29;19925;-74
2023/11/19 12:58:42;;;;;;;;;;;256.80;2252.80;;;;;;4923994;29;19962;-76
2023/11/19 13:01:11;;;;;;;;;;;256.50;2252.80;;;;;;4907756;29;19911;-77
2023/11/19 13:03:43;;;;;;;;;;;256.60;2252.80;;;;;;4933558;29;20375;-79
2023/11/19 13:06:12;;;;;;;;;;;256.70;2252.80;;;;;;4903589;29;19926;-75
2023/11/19 13:08:38;;;;;;;;;;;256.80;2252.80;;;;;;4927761;29;19914;-75
2023/11/19 13:11:04;;;;;;;;;;;256.80;2252.80;;;;;;4930637;29;19907;-75
2023/11/19 13:13:29;;;;;;;;;;;256.90;2252.80;;;;;;4924941;29;19910;-74
2023/11/19 13:16:02;;;;;;;;;;;256.80;2252.80;;;;;;4919087;29;19915;-75
2023/11/19 13:18:28;;;;;;;;;;;281.90;2278.40;;;;;;4918713;29;19914;-73
2023/11/19 13:20:57;;;;;;;;;;;256.80;2252.80;;;;;;4930456;29;19962;-76
2023/11/19 13:23:22;;;;;;;;;;;256.90;2252.80;;;;;;4920966;29;19911;-74
2023/11/19 13:25:48;;;;;;;;;;;256.90;2252.80;;;;;;4918857;29;19914;-73
2023/11/19 13:28:14;;;;;;;;;;;256.70;2252.80;;;;;;4933766;28;19919;-75
2023/11/19 13:30:40;;;;;;;;;;;256.70;2252.80;;;;;;4993310;28;20378;-76
2023/11/19 13:33:05;;;;;;;;;;;256.60;2252.80;;;;;;4968067;28;20334;-76
2023/11/19 13:35:31;;;;;;;;;;;256.50;2252.80;;;;;;4974967;28;19925;-76
2023/11/19 13:37:56;;;;;;;;;;;256.30;2252.80;;;;;;4991358;28;19914;-76
2023/11/19 13:40:24;;;;;;;;;;;256.20;2252.80;;;;;;4989058;28;19941;-75